Time;durP1;ratioP1;P1;durP2;ratioP2;P2;SDS_P1;SDS_P2;PMS_P1;PMS_P2;Temp;Humidity;BMP_temperature;BMP_pressure;BME280_temperature;BME280_humidity;BME280_pressure;Samples;Min_cycle;Max_cycle;Signal;HPM_P1;HPM_P2
2024/01/16 00:00:02;;;;;;;123.25;44.17;;;-1.70;99.90;;;;;;5008351;28;20033;-83
2024/01/16 00:02:27;;;;;;;62.58;25.83;;;-1.70;99.90;;;;;;5010016;28;20026;-78
2024/01/16 00:04:53;;;;;;;74.18;28.40;;;-1.70;99.90;;;;;;5008535;28;20615;-79
2024/01/16 00:07:19;;;;;;;84.10;33.90;;;-1.70;99.90;;;;;;5009962;28;20542;-80
2024/01/16 00:09:45;;;;;;;63.25;26.85;;;-1.70;99.90;;;;;;5009966;28;20030;-78
2024/01/16 00:12:11;;;;;;;58.25;23.08;;;-1.70;99.90;;;;;;5008512;28;20044;-78
2024/01/16 00:14:37;;;;;;;59.83;26.33;;;-1.70;99.90;;;;;;5008339;28;20029;-78
2024/01/16 00:17:03;;;;;;;52.50;22.30;;;-1.70;99.90;;;;;;5008741;28;20075;-78
2024/01/16 00:19:29;;;;;;;53.00;22.70;;;-1.70;99.90;;;;;;5008326;28;20452;-79
2024/01/16 00:21:54;;;;;;;56.72;28.65;;;-1.70;99.90;;;;;;5009896;28;20422;-78
2024/01/16 00:24:20;;;;;;;216.60;90.93;;;-1.70;99.90;;;;;;5008622;28;20524;-79
2024/01/16 00:26:46;;;;;;;124.65;47.65;;;-1.70;99.90;;;;;;5010039;28;20053;-81
2024/01/16 00:29:12;;;;;;;49.10;23.67;;;-1.70;99.90;;;;;;5008445;28;20026;-77
2024/01/16 00:31:40;;;;;;;48.70;22.80;;;-1.70;99.90;;;;;;5008270;28;20242;-78
2024/01/16 00:34:06;;;;;;;63.28;30.88;;;-1.70;99.90;;;;;;4995500;28;20030;-80
2024/01/16 00:36:32;;;;;;;59.53;28.20;;;-1.70;99.90;;;;;;5029084;28;20030;-77
2024/01/16 00:38:58;;;;;;;68.10;26.83;;;-1.70;99.90;;;;;;5027593;28;20041;-77
2024/01/16 00:41:23;;;;;;;53.05;24.90;;;-1.70;99.90;;;;;;5029064;28;20102;-78
2024/01/16 00:43:49;;;;;;;61.65;30.98;;;-1.70;99.90;;;;;;5027066;28;20021;-79
2024/01/16 00:46:15;;;;;;;49.25;23.48;;;-1.70;99.90;;;;;;5027457;28;20018;-81
2024/01/16 00:48:41;;;;;;;46.00;22.00;;;-1.70;99.90;;;;;;5028028;28;20112;-78
2024/01/16 00:51:06;;;;;;;36.45;19.92;;;-1.70;99.90;;;;;;5028623;28;20032;-78
2024/01/16 00:53:32;;;;;;;40.95;18.58;;;-1.70;99.90;;;;;;5027764;28;20014;-81
2024/01/16 00:55:58;;;;;;;42.03;20.67;;;-1.70;99.90;;;;;;5028407;28;20021;-78
2024/01/16 00:58:24;;;;;;;47.75;25.48;;;-1.70;99.90;;;;;;5030517;28;20071;-81
2024/01/16 01:00:50;;;;;;;122.35;54.00;;;-1.70;99.90;;;;;;5031240;27;20029;-78
2024/01/16 01:03:15;;;;;;;64.60;29.23;;;-1.70;99.90;;;;;;5028435;28;20112;-82
2024/01/16 01:05:41;;;;;;;37.45;19.15;;;-1.70;99.90;;;;;;5030958;28;20045;-80
2024/01/16 01:08:07;;;;;;;44.45;20.88;;;-1.70;99.90;;;;;;5028313;28;20025;-78
2024/01/16 01:10:33;;;;;;;52.72;23.98;;;-1.70;99.90;;;;;;5029538;28;20022;-78
2024/01/16 01:12:59;;;;;;;37.92;16.75;;;-1.70;99.90;;;;;;5028447;28;20021;-81
2024/01/16 01:15:24;;;;;;;37.42;19.17;;;-1.70;99.90;;;;;;5007109;28;20077;-80
2024/01/16 01:17:51;;;;;;;27.30;13.57;;;-1.70;99.90;;;;;;5029843;28;20053;-78
2024/01/16 01:20:18;;;;;;;28.52;15.85;;;-1.60;99.90;;;;;;5006415;28;20052;-81
2024/01/16 01:22:44;;;;;;;81.25;39.70;;;-1.60;99.90;;;;;;5029867;28;20029;-78
2024/01/16 01:25:11;;;;;;;41.20;17.50;;;-1.60;99.90;;;;;;5005366;28;20017;-78
2024/01/16 01:27:37;;;;;;;31.52;14.65;;;-1.50;99.90;;;;;;5030312;28;20021;-80
2024/01/16 01:30:03;;;;;;;27.90;15.25;;;-1.50;99.90;;;;;;5031160;28;20365;-80
2024/01/16 01:32:29;;;;;;;32.08;15.85;;;-1.50;99.90;;;;;;5028845;28;20059;-80
2024/01/16 01:34:55;;;;;;;29.35;14.65;;;-1.50;99.90;;;;;;4999739;28;20103;-80
2024/01/16 01:37:20;;;;;;;28.50;14.02;;;-1.40;99.90;;;;;;5012098;28;20030;-78
2024/01/16 01:39:46;;;;;;;22.40;12.02;;;-1.40;99.90;;;;;;5012307;28;20057;-80
2024/01/16 01:42:12;;;;;;;22.40;12.15;;;-1.50;99.90;;;;;;5010907;28;20057;-80
2024/01/16 01:44:38;;;;;;;24.42;14.43;;;-1.50;99.90;;;;;;5012328;28;20026;-80
2024/01/16 01:47:04;;;;;;;55.15;27.80;;;-1.50;99.90;;;;;;5012064;28;20036;-78
2024/01/16 01:49:31;;;;;;;26.95;12.90;;;-1.40;99.90;;;;;;5011015;28;20113;-78
2024/01/16 01:51:56;;;;;;;30.08;14.73;;;-1.40;99.90;;;;;;5011099;28;20014;-77
2024/01/16 01:54:24;;;;;;;25.73;13.35;;;-1.40;99.90;;;;;;5010968;28;20067;-79
2024/01/16 01:56:50;;;;;;;26.20;13.45;;;-1.40;99.90;;;;;;5012054;28;20067;-77
2024/01/16 01:59:19;;;;;;;21.05;13.73;;;-1.40;99.90;;;;;;5017722;28;20041;-80
2024/01/16 02:01:46;;;;;;;27.38;16.63;;;-1.40;99.90;;;;;;5016000;28;20041;-80
2024/01/16 02:04:15;;;;;;;33.55;17.00;;;-1.40;99.90;;;;;;5011500;28;20050;-80
2024/01/16 02:06:43;;;;;;;31.30;16.65;;;-1.40;99.90;;;;;;5010434;28;20025;-77
2024/01/16 02:09:09;;;;;;;36.80;21.00;;;-1.60;99.90;;;;;;5009216;28;20050;-79
2024/01/16 02:11:34;;;;;;;78.18;38.90;;;-1.70;99.90;;;;;;5012439;28;20053;-82
2024/01/16 02:14:00;;;;;;;36.17;19.38;;;-1.70;99.90;;;;;;5031055;28;20373;-78
2024/01/16 02:16:26;;;;;;;30.38;15.25;;;-1.80;99.90;;;;;;5028218;28;20021;-80
2024/01/16 02:18:52;;;;;;;29.10;15.85;;;-1.80;99.90;;;;;;5010222;28;20381;-78
2024/01/16 02:21:22;;;;;;;28.17;15.10;;;-1.90;99.90;;;;;;5011695;28;20057;-78
2024/01/16 02:23:48;;;;;;;27.90;16.00;;;-2.00;99.90;;;;;;5030710;28;20029;-79
2024/01/16 02:26:15;;;;;;;27.35;15.82;;;-2.00;99.90;;;;;;5029695;28;20049;-78
2024/01/16 02:28:41;;;;;;;32.42;16.70;;;-2.00;99.90;;;;;;5029078;28;20030;-79
2024/01/16 02:31:08;;;;;;;35.38;16.88;;;-2.00;99.90;;;;;;5029438;28;20018;-80
2024/01/16 02:33:33;;;;;;;34.03;20.17;;;-2.00;99.90;;;;;;5011684;28;20054;-77
2024/01/16 02:35:59;;;;;;;79.75;41.25;;;-2.00;99.90;;;;;;5005995;28;20060;-77
2024/01/16 02:38:25;;;;;;;43.25;21.20;;;-2.00;99.90;;;;;;5008096;28;20026;-77
2024/01/16 02:40:51;;;;;;;30.45;17.63;;;-2.00;99.90;;;;;;5014494;28;20431;-78
2024/01/16 02:43:16;;;;;;;36.17;17.23;;;-2.00;99.90;;;;;;5017196;28;20437;-78
2024/01/16 02:45:42;;;;;;;32.95;18.40;;;-2.00;99.90;;;;;;5015045;28;20044;-78
2024/01/16 02:48:08;;;;;;;31.38;17.63;;;-2.00;99.90;;;;;;5023408;28;20059;-78
2024/01/16 02:50:34;;;;;;;32.30;17.30;;;-2.00;99.90;;;;;;5029079;28;20038;-78
2024/01/16 02:53:00;;;;;;;29.77;15.32;;;-1.90;99.90;;;;;;5029630;28;20014;-79
2024/01/16 02:55:25;;;;;;;30.63;16.65;;;-1.90;99.90;;;;;;5015132;28;20022;-79
2024/01/16 02:57:51;;;;;;;30.40;18.35;;;-2.00;99.90;;;;;;5030258;28;20379;-79
2024/01/16 03:00:17;;;;;;;68.00;34.80;;;-1.90;99.90;;;;;;5024827;28;20143;-80
2024/01/16 03:02:43;;;;;;;43.38;21.38;;;-1.90;99.90;;;;;;5010785;28;20033;-80
2024/01/16 03:05:10;;;;;;;37.67;19.33;;;-1.90;99.90;;;;;;5010772;28;20056;-79
2024/01/16 03:07:36;;;;;;;28.23;15.93;;;-1.90;99.90;;;;;;5010831;28;20071;-77
2024/01/16 03:10:03;;;;;;;29.45;15.95;;;-1.90;99.90;;;;;;5022214;28;20032;-79
2024/01/16 03:12:28;;;;;;;29.00;17.27;;;-1.90;99.90;;;;;;5011498;28;20475;-79
2024/01/16 03:14:54;;;;;;;28.92;15.63;;;-1.90;99.90;;;;;;5021713;28;20022;-77
2024/01/16 03:17:20;;;;;;;31.55;15.85;;;-1.90;99.90;;;;;;5025287;28;20113;-78
2024/01/16 03:19:46;;;;;;;27.50;15.50;;;-1.80;99.90;;;;;;5027757;28;20118;-78
2024/01/16 03:22:12;;;;;;;26.17;14.48;;;-1.80;99.90;;;;;;5025925;28;20013;-79
2024/01/16 03:24:38;;;;;;;32.30;19.17;;;-1.80;99.90;;;;;;5026758;28;20141;-78
2024/01/16 03:27:04;;;;;;;38.55;17.60;;;-1.80;99.90;;;;;;5025677;28;20075;-79
2024/01/16 03:29:30;;;;;;;28.17;15.00;;;-1.80;99.90;;;;;;5027897;28;20029;-79
2024/01/16 03:31:55;;;;;;;31.45;17.70;;;-1.80;99.90;;;;;;5025026;28;20048;-80
2024/01/16 03:34:21;;;;;;;36.38;18.02;;;-1.80;99.90;;;;;;5026555;28;20029;-81
2024/01/16 03:36:47;;;;;;;32.95;16.50;;;-1.90;99.90;;;;;;5020538;28;20022;-80
2024/01/16 03:39:12;;;;;;;28.65;16.60;;;-1.90;99.90;;;;;;5019612;28;20056;-77
2024/01/16 03:41:38;;;;;;;30.10;16.55;;;-1.90;99.90;;;;;;5024699;28;20093;-78
2024/01/16 03:44:04;;;;;;;26.38;14.40;;;-1.90;99.90;;;;;;5028144;28;20025;-80
2024/01/16 03:46:29;;;;;;;26.23;15.85;;;-1.90;99.90;;;;;;5011137;28;20048;-80
2024/01/16 03:48:55;;;;;;;23.88;13.57;;;-1.90;99.90;;;;;;5010381;28;20067;-78
2024/01/16 03:51:21;;;;;;;24.42;12.85;;;-1.90;99.90;;;;;;5026189;28;20033;-81
2024/01/16 03:53:46;;;;;;;37.28;15.35;;;-1.90;99.90;;;;;;5029796;28;20074;-78
2024/01/16 03:56:12;;;;;;;19.45;11.48;;;-2.00;99.90;;;;;;5016193;28;20379;-81
2024/01/16 03:58:41;;;;;;;25.20;13.77;;;-1.90;99.90;;;;;;5024826;28;20440;-78
2024/01/16 04:01:07;;;;;;;31.38;16.90;;;-2.00;99.90;;;;;;5019478;28;20020;-79
2024/01/16 04:03:33;;;;;;;35.65;18.40;;;-2.00;99.90;;;;;;5027271;28;20026;-78
2024/01/16 04:05:59;;;;;;;29.30;16.65;;;-1.90;99.90;;;;;;5023026;28;20513;-80
2024/01/16 04:08:25;;;;;;;23.05;13.43;;;-2.00;99.90;;;;;;5017463;28;20026;-80
2024/01/16 04:10:50;;;;;;;24.10;12.70;;;-2.00;99.90;;;;;;5022157;28;20032;-79
2024/01/16 04:13:16;;;;;;;25.08;14.27;;;-2.00;99.90;;;;;;5025840;28;20025;-78
2024/01/16 04:15:41;;;;;;;22.38;13.50;;;-2.00;99.90;;;;;;5022929;28;20066;-81
2024/01/16 04:18:07;;;;;;;24.85;13.73;;;-2.00;99.90;;;;;;5027421;28;20463;-78
2024/01/16 04:20:33;;;;;;;28.08;14.18;;;-2.00;99.90;;;;;;5008697;28;20038;-80
2024/01/16 04:22:59;;;;;;;32.30;14.07;;;-2.00;99.90;;;;;;5019599;28;20621;-78
2024/01/16 04:25:24;;;;;;;26.35;13.63;;;-2.00;99.90;;;;;;5020831;28;20028;-78
2024/01/16 04:27:50;;;;;;;12.68;6.90;;;-2.00;99.90;;;;;;5018294;28;20119;-79
2024/01/16 04:30:16;;;;;;;13.57;6.63;;;-2.10;99.90;;;;;;5023483;28;20025;-80
2024/01/16 04:32:42;;;;;;;7.85;5.20;;;-2.10;99.90;;;;;;5024717;28;20087;-79
2024/01/16 04:35:08;;;;;;;6.25;4.50;;;-2.10;99.90;;;;;;5016680;28;20097;-79
2024/01/16 04:37:34;;;;;;;6.82;4.28;;;-2.20;99.90;;;;;;5015173;28;20116;-80
2024/01/16 04:40:00;;;;;;;6.75;3.63;;;-2.20;99.90;;;;;;5016488;28;20025;-78
2024/01/16 04:42:26;;;;;;;3.92;3.53;;;-2.20;99.90;;;;;;5015205;28;20487;-78
2024/01/16 04:44:51;;;;;;;5.25;3.33;;;-2.20;99.90;;;;;;5025009;28;20093;-79
2024/01/16 04:47:17;;;;;;;5.00;3.28;;;-2.20;99.90;;;;;;5014902;28;20026;-80
2024/01/16 04:49:43;;;;;;;4.28;3.05;;;-2.20;99.90;;;;;;5018301;28;20105;-81
2024/01/16 04:52:08;;;;;;;6.03;4.15;;;-2.20;99.90;;;;;;5016494;28;20394;-82
2024/01/16 04:54:34;;;;;;;4.68;3.67;;;-2.20;99.90;;;;;;5017161;28;20070;-82
2024/01/16 04:57:00;;;;;;;5.38;3.83;;;-2.20;99.90;;;;;;5014712;28;20510;-79
2024/01/16 04:59:25;;;;;;;6.68;4.82;;;-2.30;99.90;;;;;;5016246;28;20042;-79
2024/01/16 05:01:51;;;;;;;6.07;4.22;;;-2.30;99.90;;;;;;5019826;28;20542;-81
2024/01/16 05:04:17;;;;;;;6.70;4.57;;;-2.30;99.90;;;;;;5024540;28;20542;-81
2024/01/16 05:06:43;;;;;;;9.02;5.85;;;-2.20;99.90;;;;;;5017358;28;20018;-81
2024/01/16 05:09:12;;;;;;;9.27;5.00;;;-2.20;99.90;;;;;;5014122;28;20030;-79
2024/01/16 05:11:37;;;;;;;5.82;4.63;;;-2.30;99.90;;;;;;5014354;28;20105;-81
2024/01/16 05:14:03;;;;;;;6.57;4.70;;;-2.30;99.90;;;;;;5014199;28;20105;-81
2024/01/16 05:16:29;;;;;;;6.80;4.22;;;-2.40;99.90;;;;;;5015354;28;20639;-81
2024/01/16 05:18:54;;;;;;;6.35;4.25;;;-2.40;99.90;;;;;;5014245;28;20034;-83
2024/01/16 05:21:20;;;;;;;7.22;4.07;;;-2.30;99.90;;;;;;5013968;28;20026;-79
2024/01/16 05:23:46;;;;;;;5.95;3.78;;;-2.40;99.90;;;;;;5012804;28;20033;-79
2024/01/16 05:26:12;;;;;;;5.63;3.80;;;-2.40;99.90;;;;;;5013624;28;20018;-79
2024/01/16 05:28:40;;;;;;;5.13;3.92;;;-2.40;99.90;;;;;;5013513;28;20034;-80
2024/01/16 05:31:05;;;;;;;5.05;3.40;;;-2.40;99.90;;;;;;5013903;28;20021;-80
2024/01/16 05:33:32;;;;;;;3.47;2.60;;;-2.40;99.90;;;;;;5001228;28;20030;-80
2024/01/16 05:35:58;;;;;;;5.68;3.65;;;-2.40;99.90;;;;;;5011693;28;20490;-80
2024/01/16 05:38:23;;;;;;;5.72;3.92;;;-2.40;99.90;;;;;;5011709;28;20033;-81
2024/01/16 05:40:49;;;;;;;6.35;4.45;;;-2.40;99.90;;;;;;5023307;28;20032;-79
2024/01/16 05:43:15;;;;;;;5.45;3.88;;;-2.40;99.90;;;;;;5026660;28;20017;-79
2024/01/16 05:45:40;;;;;;;6.55;4.18;;;-2.40;99.90;;;;;;5018187;28;20033;-81
2024/01/16 05:48:09;;;;;;;4.55;4.03;;;-2.50;99.90;;;;;;5010523;28;20018;-79
2024/01/16 05:50:36;;;;;;;5.57;3.50;;;-2.50;99.90;;;;;;5010460;28;20064;-82
2024/01/16 05:53:02;;;;;;;6.63;4.10;;;-2.50;99.90;;;;;;5012322;28;20386;-79
2024/01/16 05:55:31;;;;;;;10.77;4.32;;;-2.50;99.90;;;;;;5010905;28;20033;-79
2024/01/16 05:57:59;;;;;;;6.57;3.58;;;-2.50;99.90;;;;;;5010735;28;20078;-79
2024/01/16 06:00:25;;;;;;;7.82;4.15;;;-2.60;99.90;;;;;;5011651;28;20094;-82
2024/01/16 06:02:51;;;;;;;6.05;4.10;;;-2.60;99.90;;;;;;5010475;28;20113;-86
2024/01/16 06:05:16;;;;;;;4.07;3.25;;;-2.70;99.90;;;;;;5013835;28;20505;-80
2024/01/16 06:07:42;;;;;;;5.72;4.25;;;-2.70;99.90;;;;;;5009524;28;20018;-78
2024/01/16 06:10:09;;;;;;;4.15;3.45;;;-2.70;99.90;;;;;;5010304;28;20026;-77
2024/01/16 06:12:35;;;;;;;5.63;3.60;;;-2.70;99.90;;;;;;5016928;28;20014;-78
2024/01/16 06:15:00;;;;;;;9.82;5.45;;;-2.70;99.90;;;;;;5013574;28;20041;-78
2024/01/16 06:17:26;;;;;;;14.07;6.13;;;-2.70;99.90;;;;;;5017038;28;20054;-80
2024/01/16 06:19:52;;;;;;;10.02;5.40;;;-2.70;99.90;;;;;;5014131;28;20053;-78
2024/01/16 06:22:17;;;;;;;15.38;5.07;;;-2.70;99.90;;;;;;5016526;28;20061;-79
2024/01/16 06:24:43;;;;;;;8.60;4.57;;;-2.70;99.90;;;;;;5006391;28;20043;-78
2024/01/16 06:27:09;;;;;;;8.23;4.47;;;-2.80;99.90;;;;;;5015317;28;20073;-78
2024/01/16 06:29:35;;;;;;;7.22;4.57;;;-2.80;99.90;;;;;;5011343;28;20114;-79
2024/01/16 06:32:01;;;;;;;8.35;4.55;;;-2.80;99.90;;;;;;5014847;28;20033;-81
2024/01/16 06:34:27;;;;;;;8.38;5.18;;;-2.80;99.90;;;;;;5006570;28;20034;-78
2024/01/16 06:36:53;;;;;;;8.85;4.95;;;-2.80;99.90;;;;;;5011451;28;20018;-79
2024/01/16 06:39:19;;;;;;;11.75;6.20;;;-2.80;99.90;;;;;;5008304;28;20050;-79
2024/01/16 06:41:44;;;;;;;9.45;6.63;;;-2.80;99.90;;;;;;5010820;28;20075;-78
2024/01/16 06:44:10;;;;;;;15.35;6.38;;;-2.80;99.90;;;;;;5019431;28;20017;-78
2024/01/16 06:46:36;;;;;;;14.23;6.88;;;-2.80;99.90;;;;;;5011126;28;20022;-78
2024/01/16 06:49:02;;;;;;;12.80;6.88;;;-2.80;99.90;;;;;;5011391;28;20072;-79
2024/01/16 06:51:28;;;;;;;13.15;7.40;;;-2.80;99.90;;;;;;5012029;28;20410;-79
2024/01/16 06:53:53;;;;;;;14.73;6.22;;;-2.80;99.90;;;;;;5006988;28;20032;-79
2024/01/16 06:56:19;;;;;;;12.20;6.93;;;-2.80;99.90;;;;;;5011381;28;20102;-79
2024/01/16 06:58:44;;;;;;;15.57;6.70;;;-2.80;99.90;;;;;;4999557;28;20026;-80
2024/01/16 07:01:10;;;;;;;12.52;6.00;;;-2.80;99.90;;;;;;5009743;28;20014;-79
2024/01/16 07:03:36;;;;;;;12.50;6.78;;;-2.80;99.90;;;;;;5008655;28;20025;-79
2024/01/16 07:06:02;;;;;;;13.55;7.32;;;-2.80;99.90;;;;;;5007711;28;20462;-79
2024/01/16 07:08:28;;;;;;;16.50;7.57;;;-2.80;99.90;;;;;;5008551;28;20473;-79
2024/01/16 07:10:54;;;;;;;18.63;8.02;;;-2.80;99.90;;;;;;5009562;28;20018;-79
2024/01/16 07:13:20;;;;;;;15.85;7.63;;;-2.80;99.90;;;;;;5008962;28;20034;-79
2024/01/16 07:15:45;;;;;;;15.27;7.65;;;-2.80;99.90;;;;;;5011295;28;20014;-79
2024/01/16 07:18:11;;;;;;;18.48;8.90;;;-2.80;99.90;;;;;;5009857;28;20022;-79
2024/01/16 07:20:37;;;;;;;18.38;8.25;;;-2.70;99.90;;;;;;5012317;28;20026;-79
2024/01/16 07:23:04;;;;;;;20.73;8.68;;;-2.70;99.90;;;;;;5009762;28;20064;-80
2024/01/16 07:25:29;;;;;;;17.75;7.85;;;-2.70;99.90;;;;;;5012189;28;20022;-80
2024/01/16 07:27:55;;;;;;;21.50;8.38;;;-2.70;99.90;;;;;;5010272;28;20022;-78
2024/01/16 07:30:20;;;;;;;19.30;8.23;;;-2.70;99.90;;;;;;5013053;28;20505;-79
2024/01/16 07:32:46;;;;;;;14.75;7.47;;;-2.70;99.90;;;;;;5008999;28;20022;-79
2024/01/16 07:35:12;;;;;;;15.05;7.97;;;-2.60;99.90;;;;;;5016302;28;20014;-79
2024/01/16 07:37:37;;;;;;;12.23;6.68;;;-2.60;99.90;;;;;;5019871;28;20064;-79
2024/01/16 07:40:05;;;;;;;14.43;7.10;;;-2.60;99.90;;;;;;5026824;28;20082;-79
2024/01/16 07:42:34;;;;;;;10.88;6.38;;;-2.60;99.90;;;;;;5018247;28;20032;-79
2024/01/16 07:45:04;;;;;;;12.68;6.90;;;-2.60;99.90;;;;;;5021651;28;20045;-79
2024/01/16 07:47:33;;;;;;;12.90;7.22;;;-2.60;99.90;;;;;;5021586;28;20018;-79
2024/01/16 07:49:59;;;;;;;15.00;9.25;;;-2.50;99.90;;;;;;5029176;28;20025;-79
2024/01/16 07:52:26;;;;;;;16.95;7.38;;;-2.50;99.90;;;;;;5029017;28;20044;-79
2024/01/16 07:54:52;;;;;;;12.13;7.93;;;-2.40;99.90;;;;;;5015049;28;20108;-79
2024/01/16 07:57:18;;;;;;;20.13;9.85;;;-2.40;99.90;;;;;;5027475;28;20121;-79
2024/01/16 07:59:43;;;;;;;13.95;8.00;;;-2.20;99.90;;;;;;5021299;28;20087;-79
2024/01/16 08:02:09;;;;;;;16.17;7.95;;;-2.20;99.90;;;;;;5020139;28;20066;-79
2024/01/16 08:04:35;;;;;;;13.35;8.93;;;-2.10;99.90;;;;;;5013175;28;20490;-80
2024/01/16 08:07:01;;;;;;;17.55;8.93;;;-1.90;99.90;;;;;;5030578;28;20044;-79
2024/01/16 08:09:26;;;;;;;16.55;9.15;;;-1.90;99.90;;;;;;5014217;28;20033;-79
2024/01/16 08:11:52;;;;;;;20.13;9.48;;;-1.80;99.90;;;;;;5024196;28;20390;-79
2024/01/16 08:14:18;;;;;;;22.92;9.60;;;-1.70;99.90;;;;;;5030674;28;20025;-79
2024/01/16 08:16:43;;;;;;;23.85;11.55;;;-1.60;99.90;;;;;;5030907;28;20033;-80
2024/01/16 08:19:09;;;;;;;23.10;11.30;;;-1.40;99.90;;;;;;5031477;28;20043;-80
2024/01/16 08:21:34;;;;;;;19.17;10.60;;;-1.40;99.90;;;;;;5031125;28;20437;-79
2024/01/16 08:24:00;;;;;;;25.17;11.65;;;-1.30;99.90;;;;;;5026237;28;20093;-79
2024/01/16 08:26:26;;;;;;;20.00;9.98;;;-1.20;99.90;;;;;;5024904;28;20026;-79
2024/01/16 08:28:51;;;;;;;16.70;9.68;;;-1.20;99.90;;;;;;5031258;28;20018;-79
2024/01/16 08:31:20;;;;;;;19.65;9.63;;;-1.10;99.90;;;;;;5032532;28;20022;-79
2024/01/16 08:33:47;;;;;;;21.35;10.82;;;-1.10;99.90;;;;;;5031560;28;20026;-79
2024/01/16 08:36:13;;;;;;;18.48;11.30;;;-1.10;99.90;;;;;;5030831;28;20372;-79
2024/01/16 08:38:39;;;;;;;22.73;12.60;;;-1.10;99.90;;;;;;5031366;28;20387;-79
2024/01/16 08:41:06;;;;;;;22.63;12.25;;;-1.10;99.90;;;;;;5030789;28;20018;-79
2024/01/16 08:43:33;;;;;;;23.23;12.38;;;-1.20;99.90;;;;;;5030426;28;20028;-79
2024/01/16 08:45:59;;;;;;;22.95;12.98;;;-1.10;99.90;;;;;;5018066;28;20022;-79
2024/01/16 08:48:25;;;;;;;21.08;12.55;;;-1.10;99.90;;;;;;5012808;28;20033;-79
2024/01/16 08:50:51;;;;;;;19.38;11.13;;;-1.10;99.90;;;;;;5012641;28;20109;-79
2024/01/16 08:53:17;;;;;;;22.70;11.52;;;-1.10;99.90;;;;;;5025561;28;20022;-79
2024/01/16 08:55:43;;;;;;;23.60;12.13;;;-1.00;99.90;;;;;;5011449;28;20479;-80
2024/01/16 08:58:08;;;;;;;21.88;13.45;;;-1.00;99.90;;;;;;5011991;28;20049;-79
2024/01/16 09:00:34;;;;;;;22.77;13.52;;;-1.00;99.90;;;;;;5013094;28;20376;-80
2024/01/16 09:03:00;;;;;;;35.00;14.48;;;-1.00;99.90;;;;;;5011691;28;20021;-80
2024/01/16 09:05:25;;;;;;;27.23;13.23;;;-0.70;99.90;;;;;;5013054;28;20054;-80
2024/01/16 09:07:52;;;;;;;28.30;14.35;;;-0.60;99.90;;;;;;5012943;28;20518;-80
2024/01/16 09:10:18;;;;;;;26.30;14.25;;;-0.60;99.90;;;;;;5011914;28;20071;-79
2024/01/16 09:12:44;;;;;;;31.98;16.55;;;-0.60;99.90;;;;;;5013661;28;20052;-80
2024/01/16 09:15:10;;;;;;;80.20;33.70;;;-0.80;99.90;;;;;;5012083;28;20021;-79
2024/01/16 09:17:36;;;;;;;144.35;56.78;;;-0.80;99.90;;;;;;5011931;28;20093;-79
2024/01/16 09:20:01;;;;;;;157.07;60.58;;;-0.80;99.90;;;;;;5013300;28;20113;-80
2024/01/16 09:22:27;;;;;;;91.72;34.60;;;-0.90;99.90;;;;;;5012421;28;20049;-80
2024/01/16 09:24:53;;;;;;;32.97;15.13;;;-0.90;99.90;;;;;;5011513;28;20394;-79
2024/01/16 09:27:19;;;;;;;48.45;20.00;;;-1.00;99.90;;;;;;5013584;28;20407;-79
2024/01/16 09:29:45;;;;;;;43.85;19.15;;;-1.10;99.90;;;;;;5013089;28;20101;-79
2024/01/16 09:32:10;;;;;;;43.90;19.95;;;-1.30;99.90;;;;;;5012843;28;20542;-80
2024/01/16 09:34:36;;;;;;;28.95;13.68;;;-1.30;99.90;;;;;;5011712;28;20391;-79
2024/01/16 09:37:02;;;;;;;663.03;252.90;;;-1.40;99.90;;;;;;5013190;28;20022;-80
2024/01/16 09:39:30;;;;;;;35.65;18.15;;;-1.40;99.90;;;;;;5012778;28;20041;-79
2024/01/16 09:41:59;;;;;;;29.00;12.00;;;-1.50;99.90;;;;;;5013032;28;20089;-79
2024/01/16 09:44:25;;;;;;;19.60;9.93;;;-1.60;99.90;;;;;;5012347;28;20386;-79
2024/01/16 09:46:52;;;;;;;20.50;9.90;;;-1.60;99.90;;;;;;5011314;28;20029;-80
2024/01/16 09:49:18;;;;;;;192.52;55.22;;;-1.70;99.90;;;;;;5023769;28;20034;-79
2024/01/16 09:51:45;;;;;;;17.33;8.82;;;-1.70;99.90;;;;;;5029758;28;20018;-80
2024/01/16 09:54:11;;;;;;;27.13;12.10;;;-1.80;99.90;;;;;;5030731;27;20057;-80
2024/01/16 09:56:43;;;;;;;26.85;11.30;;;-1.70;99.90;;;;;;5030262;28;20040;-79
2024/01/16 09:59:10;;;;;;;38.33;14.27;;;-1.70;99.90;;;;;;5029765;28;20037;-81
2024/01/16 10:01:36;;;;;;;46.67;16.80;;;-1.70;99.90;;;;;;5030148;28;20040;-81
2024/01/16 10:04:02;;;;;;;41.67;16.45;;;-1.70;99.90;;;;;;5029259;28;20083;-80
2024/01/16 10:06:31;;;;;;;29.48;12.13;;;-1.80;99.90;;;;;;5031368;28;20068;-81
2024/01/16 10:08:57;;;;;;;48.42;18.63;;;-1.70;99.90;;;;;;5029526;28;20142;-81
2024/01/16 10:11:23;;;;;;;29.88;11.18;;;-1.60;99.90;;;;;;5031120;28;20042;-81
2024/01/16 10:13:48;;;;;;;50.78;17.55;;;-1.50;99.90;;;;;;5030433;28;20080;-81
2024/01/16 10:16:14;;;;;;;27.63;11.20;;;-1.30;99.90;;;;;;5029893;28;20017;-81
2024/01/16 10:18:40;;;;;;;31.65;13.10;;;-1.20;99.90;;;;;;5030278;28;20023;-81
2024/01/16 10:21:22;;;;;;;27.88;11.15;;;-1.10;99.90;;;;;;5029667;28;20512;-81
2024/01/16 10:23:49;;;;;;;26.40;9.10;;;-1.10;99.90;;;;;;5013657;28;20029;-81
2024/01/16 10:26:15;;;;;;;15.93;6.60;;;-1.00;99.90;;;;;;5010175;28;20394;-81
2024/01/16 10:28:42;;;;;;;11.18;6.43;;;-0.90;99.90;;;;;;5025837;28;20010;-81
2024/01/16 10:31:09;;;;;;;19.98;8.10;;;-0.90;99.90;;;;;;5029276;28;20025;-81
2024/01/16 10:33:38;;;;;;;12.45;6.68;;;-0.80;99.90;;;;;;5028752;28;20017;-81
2024/01/16 10:36:16;;;;;;;26.98;10.38;;;-0.60;99.90;;;;;;5030581;28;20105;-81
2024/01/16 10:38:43;;;;;;;128.65;45.50;;;-0.50;99.90;;;;;;5028485;28;20026;-81
2024/01/16 10:41:18;;;;;;;78.03;25.65;;;-0.30;99.90;;;;;;5020073;28;20022;-81
2024/01/16 10:43:44;;;;;;;50.00;18.88;;;-0.30;99.90;;;;;;5015025;28;20030;-81
2024/01/16 10:46:19;;;;;;;57.20;24.02;;;-0.30;99.90;;;;;;5010859;28;20022;-81
2024/01/16 10:49:00;;;;;;;69.28;26.08;;;-0.40;99.90;;;;;;5018154;28;20048;-78
2024/01/16 10:51:30;;;;;;;62.65;23.63;;;-0.50;99.90;;;;;;5025150;28;20371;-78
2024/01/16 10:54:08;;;;;;;32.30;13.48;;;-0.60;99.90;;;;;;5011162;28;20117;-78
2024/01/16 10:56:35;;;;;;;60.80;22.33;;;-0.70;99.90;;;;;;5010947;28;20033;-81
2024/01/16 10:59:18;;;;;;;47.85;20.70;;;-0.70;99.90;;;;;;5023653;28;20033;-79
2024/01/16 11:01:48;;;;;;;79.47;32.78;;;-0.80;99.90;;;;;;5008142;28;20030;-79
2024/01/16 11:04:15;;;;;;;115.97;34.92;;;-0.80;99.90;;;;;;5029492;28;20132;-79
2024/01/16 11:06:42;;;;;;;69.25;21.50;;;-0.90;99.90;;;;;;5030008;28;20418;-79
2024/01/16 11:09:09;;;;;;;104.93;34.65;;;-1.00;99.90;;;;;;5029511;28;20025;-79
2024/01/16 11:11:37;;;;;;;20.05;10.85;;;-0.90;99.90;;;;;;5029045;28;20065;-79
2024/01/16 11:14:03;;;;;;;59.65;22.25;;;-1.00;99.90;;;;;;5029079;28;20021;-79
2024/01/16 11:16:32;;;;;;;44.17;19.38;;;-1.10;99.90;;;;;;5029601;28;20025;-79
2024/01/16 11:18:58;;;;;;;32.72;14.43;;;-1.10;99.90;;;;;;5027375;28;20029;-78
2024/01/16 11:21:25;;;;;;;37.53;13.77;;;-1.10;99.90;;;;;;5029388;28;20364;-79
2024/01/16 11:23:51;;;;;;;35.70;12.20;;;-1.10;99.90;;;;;;5027574;28;20021;-79
2024/01/16 11:26:28;;;;;;;40.60;17.70;;;-1.00;99.90;;;;;;5029499;28;20360;-79
2024/01/16 11:28:58;;;;;;;125.68;45.65;;;-1.00;99.90;;;;;;5027526;28;20013;-79
2024/01/16 11:31:31;;;;;;;47.55;19.55;;;-0.90;99.90;;;;;;5028724;28;20110;-77
2024/01/16 11:33:59;;;;;;;31.90;15.13;;;-0.80;99.90;;;;;;5016640;28;20536;-79
2024/01/16 11:36:46;;;;;;;32.47;17.05;;;-0.70;99.90;;;;;;5026539;28;20036;-79
2024/01/16 11:39:18;;;;;;;40.88;15.85;;;-0.70;99.90;;;;;;5027822;28;20060;-79
2024/01/16 11:41:52;;;;;;;57.25;20.50;;;-0.60;99.90;;;;;;5026539;28;20026;-81
2024/01/16 11:44:39;;;;;;;58.05;23.25;;;-0.50;99.90;;;;;;5029204;28;20049;-80
2024/01/16 11:47:05;;;;;;;109.95;41.00;;;-0.50;99.90;;;;;;4997823;28;20073;-81
2024/01/16 11:49:34;;;;;;;56.28;21.05;;;-0.50;99.90;;;;;;5024341;28;20030;-80
2024/01/16 11:52:00;;;;;;;85.15;29.42;;;-0.50;99.90;;;;;;5028352;28;20041;-80
2024/01/16 11:54:26;;;;;;;73.80;26.95;;;-0.60;99.90;;;;;;5028031;28;20451;-81
2024/01/16 11:56:57;;;;;;;135.95;43.88;;;-0.70;99.90;;;;;;5028055;28;20025;-80
2024/01/16 12:00:01;;;;;;;106.13;34.83;;;-0.60;99.90;;;;;;5012631;28;20128;-80
2024/01/16 12:02:53;;;;;;;57.65;21.55;;;-0.60;99.90;;;;;;5022902;28;20029;-81
2024/01/16 12:05:20;;;;;;;45.72;23.10;;;-0.50;99.90;;;;;;5028361;28;20077;-80
2024/01/16 12:07:49;;;;;;;68.13;26.58;;;-0.40;99.90;;;;;;5027435;28;20059;-80
2024/01/16 12:10:16;;;;;;;55.70;22.85;;;-0.40;99.90;;;;;;5028107;28;20078;-80
2024/01/16 12:12:42;;;;;;;50.08;21.13;;;-0.20;99.90;;;;;;5014479;28;20056;-80
2024/01/16 12:15:16;;;;;;;79.75;32.85;;;-0.20;99.90;;;;;;5027966;28;20053;-80
2024/01/16 12:17:55;;;;;;;65.75;25.60;;;-0.20;99.90;;;;;;5002284;28;20025;-81
2024/01/16 12:20:21;;;;;;;58.55;24.92;;;-0.20;99.90;;;;;;5027736;28;20517;-80
2024/01/16 12:22:59;;;;;;;54.03;23.95;;;-0.20;99.90;;;;;;5029066;28;20028;-80
2024/01/16 12:25:26;;;;;;;70.75;32.40;;;-0.20;99.90;;;;;;5026868;28;20398;-80
2024/01/16 12:28:00;;;;;;;37.95;15.45;;;-0.20;99.90;;;;;;5027538;28;20141;-80